SIA141 WMKP-WSSS
Flight info
| Callsign | SIA141 |
|---|---|
| Flight time | 1h 0m |
| Altitude | 33000 |
| Route | KABOT1A VIH A464 VKL Y507 MAKNA Y511 TOPOR A464 ARAMA DCT TEBUN TEBUN1A |
| Aircraft | B38M/M-SDFRP2GIWJ4J7M3E1E2E3HY/LB1 |
Departure
| Time | 2026-04-18 08:32 |
|---|---|
| Airport | Penang International Airport (WMKP) |
Arrival
| Time | 2026-04-18 09:33 |
|---|---|
| Airport | Singapore Changi Airport (WSSS) |
| Time | Latitude | Longitude | Altitude | Speed | Heading |
|---|---|---|---|---|---|
| 2026-04-18 08:19 | 5.29157 | 100.26601 | 28 ft | 0 kts | 311° |
| 2026-04-18 08:24 | 5.29147 | 100.26613 | 26 ft | 4 kts | 311° |
| 2026-04-18 08:24 | 5.29129 | 100.26633 | 26 ft | 4 kts | 311° |
| 2026-04-18 08:24 | 5.29112 | 100.26653 | 26 ft | 4 kts | 298° |
| 2026-04-18 08:24 | 5.29108 | 100.26676 | 25 ft | 4 kts | 250° |
| 2026-04-18 08:25 | 5.29120 | 100.26695 | 29 ft | 1 kts | 222° |
| 2026-04-18 08:29 | 5.29117 | 100.26692 | 29 ft | 2 kts | 222° |
| 2026-04-18 08:29 | 5.29102 | 100.26679 | 25 ft | 4 kts | 222° |
| 2026-04-18 08:29 | 5.29075 | 100.26654 | 25 ft | 7 kts | 222° |
| 2026-04-18 08:29 | 5.29032 | 100.26615 | 25 ft | 10 kts | 222° |
| 2026-04-18 08:30 | 5.28972 | 100.26561 | 25 ft | 13 kts | 222° |
| 2026-04-18 08:30 | 5.28901 | 100.26497 | 25 ft | 12 kts | 217° |
| 2026-04-18 08:30 | 5.28837 | 100.26501 | 26 ft | 11 kts | 135° |
| 2026-04-18 08:30 | 5.28774 | 100.26565 | 25 ft | 14 kts | 147° |
| 2026-04-18 08:31 | 5.28674 | 100.26604 | 25 ft | 17 kts | 140° |
| 2026-04-18 08:31 | 5.28613 | 100.26677 | 26 ft | 7 kts | 96° |
| 2026-04-18 08:31 | 5.28634 | 100.26706 | 26 ft | 6 kts | 45° |
| 2026-04-18 08:31 | 5.28664 | 100.26732 | 25 ft | 19 kts | 41° |
| 2026-04-18 08:32 | 5.29146 | 100.27169 | 27 ft | 117 kts | 42° |
| 2026-04-18 08:32 | 5.29897 | 100.27849 | 56 ft | 168 kts | 40° |
| 2026-04-18 08:32 | 5.30487 | 100.28386 | 388 ft | 177 kts | 39° |
| 2026-04-18 08:32 | 5.31415 | 100.29212 | 1071 ft | 179 kts | 39° |
| 2026-04-18 08:33 | 5.32339 | 100.30078 | 1724 ft | 188 kts | 46° |
| 2026-04-18 08:33 | 5.33037 | 100.31262 | 2139 ft | 210 kts | 74° |
| 2026-04-18 08:33 | 5.32946 | 100.33317 | 2664 ft | 242 kts | 101° |
| 2026-04-18 08:33 | 5.32732 | 100.34462 | 3110 ft | 249 kts | 99° |
| 2026-04-18 08:34 | 5.32430 | 100.36216 | 3776 ft | 263 kts | 98° |
| 2026-04-18 08:34 | 5.32127 | 100.38052 | 4507 ft | 270 kts | 98° |
| 2026-04-18 08:34 | 5.31825 | 100.39924 | 4785 ft | 271 kts | 97° |
| 2026-04-18 08:34 | 5.31530 | 100.41789 | 4925 ft | 270 kts | 97° |
| 2026-04-18 08:35 | 5.31056 | 100.43601 | 5294 ft | 270 kts | 115° |
| 2026-04-18 08:35 | 5.29939 | 100.45150 | 5652 ft | 277 kts | 129° |
| 2026-04-18 08:35 | 5.28677 | 100.46582 | 5783 ft | 278 kts | 129° |
| 2026-04-18 08:35 | 5.27389 | 100.48026 | 5922 ft | 278 kts | 130° |
| 2026-04-18 08:36 | 5.26095 | 100.49465 | 5997 ft | 277 kts | 130° |
| 2026-04-18 08:36 | 5.24790 | 100.50894 | 6071 ft | 278 kts | 134° |
| 2026-04-18 08:36 | 5.23203 | 100.51997 | 6837 ft | 280 kts | 148° |
| 2026-04-18 08:36 | 5.21496 | 100.52975 | 7587 ft | 285 kts | 148° |
| 2026-04-18 08:37 | 5.19758 | 100.53968 | 8388 ft | 289 kts | 149° |
| 2026-04-18 08:37 | 5.18001 | 100.54966 | 9188 ft | 292 kts | 149° |
| 2026-04-18 08:37 | 5.16221 | 100.55976 | 9979 ft | 295 kts | 149° |
| 2026-04-18 08:37 | 5.14406 | 100.57004 | 10535 ft | 308 kts | 150° |
| 2026-04-18 08:38 | 5.12481 | 100.58095 | 10878 ft | 326 kts | 150° |
| 2026-04-18 08:38 | 5.10470 | 100.59234 | 11334 ft | 338 kts | 150° |
| 2026-04-18 08:38 | 5.08414 | 100.60398 | 12063 ft | 340 kts | 150° |
| 2026-04-18 08:38 | 5.06339 | 100.61572 | 12748 ft | 344 kts | 150° |
| 2026-04-18 08:39 | 5.04242 | 100.62759 | 13453 ft | 348 kts | 150° |
| 2026-04-18 08:39 | 5.02122 | 100.63959 | 14083 ft | 352 kts | 150° |
| 2026-04-18 08:39 | 4.99980 | 100.65171 | 14711 ft | 355 kts | 150° |
| 2026-04-18 08:39 | 4.97824 | 100.66392 | 15314 ft | 358 kts | 150° |
| 2026-04-18 08:40 | 4.95645 | 100.67624 | 15911 ft | 361 kts | 150° |
| 2026-04-18 08:40 | 4.93444 | 100.68870 | 16509 ft | 364 kts | 150° |
| 2026-04-18 08:40 | 4.91694 | 100.69861 | 16964 ft | 367 kts | 150° |
| 2026-04-18 08:40 | 4.89673 | 100.71419 | 17514 ft | 369 kts | 132° |
| 2026-04-18 08:41 | 4.87978 | 100.73366 | 18056 ft | 373 kts | 131° |
| 2026-04-18 08:41 | 4.86266 | 100.75341 | 18517 ft | 376 kts | 130° |
| 2026-04-18 08:41 | 4.84555 | 100.77337 | 18990 ft | 379 kts | 130° |
| 2026-04-18 08:41 | 4.82842 | 100.79350 | 19448 ft | 381 kts | 130° |
| 2026-04-18 08:42 | 4.81118 | 100.81381 | 19883 ft | 384 kts | 130° |
| 2026-04-18 08:42 | 4.79379 | 100.83431 | 20343 ft | 387 kts | 130° |
| 2026-04-18 08:42 | 4.77655 | 100.85464 | 20772 ft | 389 kts | 130° |
| 2026-04-18 08:42 | 4.75895 | 100.87541 | 21203 ft | 392 kts | 130° |
| 2026-04-18 08:43 | 4.74101 | 100.89657 | 21661 ft | 395 kts | 130° |
| 2026-04-18 08:43 | 4.72315 | 100.91763 | 22087 ft | 397 kts | 130° |
| 2026-04-18 08:43 | 4.70545 | 100.93850 | 22515 ft | 400 kts | 130° |
| 2026-04-18 08:43 | 4.68736 | 100.95983 | 22944 ft | 403 kts | 130° |
| 2026-04-18 08:44 | 4.66915 | 100.98130 | 23363 ft | 405 kts | 130° |
| 2026-04-18 08:44 | 4.65082 | 101.00292 | 23711 ft | 408 kts | 130° |
| 2026-04-18 08:44 | 4.63236 | 101.02468 | 24066 ft | 410 kts | 130° |
| 2026-04-18 08:44 | 4.61382 | 101.04654 | 24430 ft | 413 kts | 130° |
| 2026-04-18 08:45 | 4.59516 | 101.06849 | 24782 ft | 415 kts | 131° |
| 2026-04-18 08:45 | 4.57351 | 101.08756 | 25123 ft | 417 kts | 148° |
| 2026-04-18 08:45 | 4.54726 | 101.09984 | 25471 ft | 418 kts | 162° |
| 2026-04-18 08:45 | 4.51940 | 101.10875 | 25784 ft | 422 kts | 163° |
| 2026-04-18 08:46 | 4.49129 | 101.11742 | 26134 ft | 424 kts | 163° |
| 2026-04-18 08:46 | 4.46293 | 101.12594 | 26503 ft | 426 kts | 163° |
| 2026-04-18 08:46 | 4.43442 | 101.13434 | 26857 ft | 429 kts | 164° |
| 2026-04-18 08:46 | 4.40574 | 101.14271 | 27214 ft | 431 kts | 164° |
| 2026-04-18 08:47 | 4.37682 | 101.15113 | 27578 ft | 433 kts | 164° |
| 2026-04-18 08:47 | 4.34776 | 101.15958 | 27922 ft | 436 kts | 164° |
| 2026-04-18 08:47 | 4.31859 | 101.16805 | 28258 ft | 438 kts | 164° |
| 2026-04-18 08:47 | 4.28919 | 101.17660 | 28592 ft | 441 kts | 164° |
| 2026-04-18 08:48 | 4.25970 | 101.18516 | 28926 ft | 443 kts | 164° |
| 2026-04-18 08:48 | 4.23004 | 101.19378 | 29251 ft | 445 kts | 164° |
| 2026-04-18 08:48 | 4.20682 | 101.20053 | 29487 ft | 447 kts | 164° |
| 2026-04-18 08:48 | 4.17687 | 101.20922 | 29781 ft | 449 kts | 164° |
| 2026-04-18 08:49 | 4.14713 | 101.21786 | 30036 ft | 451 kts | 164° |
| 2026-04-18 08:49 | 4.11694 | 101.22663 | 30293 ft | 453 kts | 164° |
| 2026-04-18 08:49 | 4.08659 | 101.23544 | 30554 ft | 455 kts | 164° |
| 2026-04-18 08:49 | 4.05613 | 101.24428 | 30821 ft | 456 kts | 164° |
| 2026-04-18 08:50 | 4.02556 | 101.25316 | 31082 ft | 458 kts | 164° |
| 2026-04-18 08:50 | 3.99495 | 101.26205 | 31337 ft | 459 kts | 164° |
| 2026-04-18 08:50 | 3.96417 | 101.27098 | 31571 ft | 461 kts | 164° |
| 2026-04-18 08:50 | 3.93342 | 101.27991 | 31816 ft | 463 kts | 164° |
| 2026-04-18 08:51 | 3.90237 | 101.28892 | 32046 ft | 464 kts | 164° |
| 2026-04-18 08:51 | 3.87125 | 101.29795 | 32263 ft | 466 kts | 164° |
| 2026-04-18 08:51 | 3.84003 | 101.30702 | 32506 ft | 468 kts | 164° |
| 2026-04-18 08:51 | 3.80869 | 101.31616 | 32735 ft | 470 kts | 164° |
| 2026-04-18 08:52 | 3.77737 | 101.32556 | 32851 ft | 471 kts | 164° |
| 2026-04-18 08:52 | 3.71477 | 101.34432 | 32842 ft | 468 kts | 164° |
| 2026-04-18 08:53 | 3.65232 | 101.36301 | 32844 ft | 469 kts | 164° |
| 2026-04-18 08:53 | 3.58974 | 101.38173 | 32839 ft | 469 kts | 164° |
| 2026-04-18 08:54 | 3.52719 | 101.40044 | 32836 ft | 469 kts | 164° |
| 2026-04-18 08:54 | 3.46470 | 101.41913 | 32839 ft | 469 kts | 164° |
| 2026-04-18 08:55 | 3.40212 | 101.43785 | 32826 ft | 469 kts | 164° |
| 2026-04-18 08:55 | 3.33956 | 101.45656 | 32818 ft | 469 kts | 163° |
| 2026-04-18 08:56 | 3.27948 | 101.48202 | 32809 ft | 470 kts | 156° |
| 2026-04-18 08:56 | 3.22050 | 101.50918 | 32802 ft | 469 kts | 155° |
| 2026-04-18 08:57 | 3.13174 | 101.55015 | 32801 ft | 468 kts | 155° |
| 2026-04-18 08:57 | 3.07266 | 101.57741 | 32804 ft | 467 kts | 155° |
| 2026-04-18 08:58 | 3.01367 | 101.60463 | 32801 ft | 467 kts | 156° |
| 2026-04-18 08:58 | 2.95479 | 101.63180 | 32805 ft | 465 kts | 156° |
| 2026-04-18 08:59 | 2.89600 | 101.65892 | 32801 ft | 464 kts | 156° |
| 2026-04-18 08:59 | 2.83736 | 101.68597 | 32804 ft | 464 kts | 156° |
| 2026-04-18 09:00 | 2.78489 | 101.71018 | 32798 ft | 464 kts | 156° |
| 2026-04-18 09:00 | 2.72630 | 101.73736 | 32801 ft | 464 kts | 155° |
| 2026-04-18 09:01 | 2.66812 | 101.76568 | 32801 ft | 465 kts | 155° |
| 2026-04-18 09:01 | 2.60987 | 101.79391 | 32802 ft | 466 kts | 155° |
| 2026-04-18 09:02 | 2.55205 | 101.82326 | 32792 ft | 466 kts | 146° |
| 2026-04-18 09:02 | 2.52788 | 101.84475 | 32802 ft | 467 kts | 131° |
| 2026-04-18 09:02 | 2.50757 | 101.87023 | 32801 ft | 469 kts | 129° |
| 2026-04-18 09:03 | 2.46782 | 101.92160 | 32808 ft | 470 kts | 128° |
| 2026-04-18 09:03 | 2.42838 | 101.97372 | 32810 ft | 470 kts | 127° |
| 2026-04-18 09:04 | 2.38907 | 102.02589 | 32808 ft | 469 kts | 127° |
| 2026-04-18 09:04 | 2.34955 | 102.07837 | 32805 ft | 469 kts | 127° |
| 2026-04-18 09:05 | 2.31056 | 102.13012 | 32807 ft | 469 kts | 127° |
| 2026-04-18 09:05 | 2.27136 | 102.18215 | 32804 ft | 468 kts | 127° |
| 2026-04-18 09:06 | 2.23217 | 102.23416 | 32801 ft | 467 kts | 127° |
| 2026-04-18 09:06 | 2.19312 | 102.28597 | 32801 ft | 467 kts | 127° |
| 2026-04-18 09:07 | 2.15402 | 102.33786 | 32807 ft | 467 kts | 127° |
| 2026-04-18 09:07 | 2.11492 | 102.38974 | 32810 ft | 467 kts | 127° |
| 2026-04-18 09:08 | 2.07585 | 102.44157 | 32814 ft | 467 kts | 127° |
| 2026-04-18 09:08 | 2.03676 | 102.49342 | 32819 ft | 467 kts | 127° |
| 2026-04-18 09:09 | 1.99791 | 102.54499 | 32820 ft | 464 kts | 127° |
| 2026-04-18 09:09 | 1.97861 | 102.57062 | 32826 ft | 448 kts | 127° |
| 2026-04-18 09:09 | 1.96001 | 102.59531 | 32823 ft | 443 kts | 127° |
| 2026-04-18 09:10 | 1.92307 | 102.64436 | 32816 ft | 441 kts | 127° |
| 2026-04-18 09:10 | 1.88618 | 102.69332 | 32820 ft | 440 kts | 127° |
| 2026-04-18 09:11 | 1.84939 | 102.74215 | 32664 ft | 440 kts | 127° |
| 2026-04-18 09:11 | 1.83117 | 102.76634 | 31696 ft | 442 kts | 127° |
| 2026-04-18 09:11 | 1.81254 | 102.79107 | 30593 ft | 446 kts | 127° |
| 2026-04-18 09:12 | 1.79386 | 102.81586 | 29486 ft | 448 kts | 127° |
| 2026-04-18 09:12 | 1.77502 | 102.84084 | 28121 ft | 452 kts | 127° |
| 2026-04-18 09:12 | 1.75604 | 102.86603 | 26758 ft | 456 kts | 127° |
| 2026-04-18 09:12 | 1.73709 | 102.89157 | 25494 ft | 458 kts | 123° |
| 2026-04-18 09:13 | 1.72188 | 102.91936 | 24665 ft | 448 kts | 117° |
| 2026-04-18 09:13 | 1.70780 | 102.94595 | 24737 ft | 418 kts | 118° |
| 2026-04-18 09:13 | 1.69450 | 102.97087 | 24624 ft | 396 kts | 117° |
| 2026-04-18 09:13 | 1.68174 | 102.99482 | 24150 ft | 387 kts | 117° |
| 2026-04-18 09:14 | 1.66919 | 103.01835 | 23698 ft | 379 kts | 117° |
| 2026-04-18 09:14 | 1.65697 | 103.04128 | 23277 ft | 369 kts | 117° |
| 2026-04-18 09:14 | 1.64504 | 103.06365 | 22834 ft | 360 kts | 117° |
| 2026-04-18 09:14 | 1.63345 | 103.08539 | 22454 ft | 349 kts | 118° |
| 2026-04-18 09:15 | 1.62076 | 103.10586 | 22031 ft | 351 kts | 131° |
| 2026-04-18 09:15 | 1.60210 | 103.12176 | 21628 ft | 356 kts | 149° |
| 2026-04-18 09:15 | 1.58456 | 103.13031 | 21379 ft | 358 kts | 155° |
| 2026-04-18 09:15 | 1.56153 | 103.14033 | 21021 ft | 361 kts | 156° |
| 2026-04-18 09:16 | 1.53843 | 103.14999 | 20658 ft | 360 kts | 157° |
| 2026-04-18 09:16 | 1.51533 | 103.15945 | 20303 ft | 358 kts | 157° |
| 2026-04-18 09:16 | 1.49226 | 103.16877 | 19935 ft | 357 kts | 158° |
| 2026-04-18 09:16 | 1.46933 | 103.17795 | 19571 ft | 355 kts | 158° |
| 2026-04-18 09:17 | 1.44640 | 103.18710 | 19203 ft | 353 kts | 158° |
| 2026-04-18 09:17 | 1.42365 | 103.19616 | 18853 ft | 351 kts | 158° |
| 2026-04-18 09:17 | 1.40098 | 103.20519 | 18493 ft | 350 kts | 158° |
| 2026-04-18 09:17 | 1.37847 | 103.21415 | 18141 ft | 348 kts | 158° |
| 2026-04-18 09:18 | 1.35600 | 103.22309 | 17732 ft | 347 kts | 158° |
| 2026-04-18 09:18 | 1.33360 | 103.23201 | 17359 ft | 345 kts | 158° |
| 2026-04-18 09:18 | 1.31144 | 103.24083 | 16999 ft | 342 kts | 158° |
| 2026-04-18 09:18 | 1.29687 | 103.24663 | 16766 ft | 340 kts | 158° |
| 2026-04-18 09:19 | 1.27498 | 103.25537 | 16466 ft | 335 kts | 156° |
| 2026-04-18 09:19 | 1.25496 | 103.26750 | 15761 ft | 343 kts | 136° |
| 2026-04-18 09:19 | 1.24020 | 103.28647 | 15088 ft | 350 kts | 118° |
| 2026-04-18 09:19 | 1.22830 | 103.30798 | 14426 ft | 358 kts | 120° |
| 2026-04-18 09:20 | 1.21564 | 103.32967 | 13757 ft | 365 kts | 120° |
| 2026-04-18 09:20 | 1.20267 | 103.35157 | 13080 ft | 364 kts | 121° |
| 2026-04-18 09:20 | 1.18992 | 103.37299 | 12641 ft | 351 kts | 121° |
| 2026-04-18 09:20 | 1.17767 | 103.39351 | 12290 ft | 337 kts | 121° |
| 2026-04-18 09:21 | 1.16588 | 103.41324 | 11943 ft | 325 kts | 121° |
| 2026-04-18 09:21 | 1.15454 | 103.43219 | 11656 ft | 311 kts | 121° |
| 2026-04-18 09:21 | 1.14364 | 103.45040 | 11378 ft | 299 kts | 121° |
| 2026-04-18 09:21 | 1.13318 | 103.46785 | 11116 ft | 287 kts | 121° |
| 2026-04-18 09:22 | 1.12308 | 103.48469 | 10839 ft | 277 kts | 121° |
| 2026-04-18 09:22 | 1.11330 | 103.50098 | 10552 ft | 270 kts | 121° |
| 2026-04-18 09:22 | 1.10376 | 103.51685 | 10381 ft | 265 kts | 121° |
| 2026-04-18 09:22 | 1.09427 | 103.53262 | 10241 ft | 265 kts | 121° |
| 2026-04-18 09:23 | 1.08481 | 103.54834 | 10127 ft | 264 kts | 121° |
| 2026-04-18 09:23 | 1.07621 | 103.56454 | 9926 ft | 263 kts | 107° |
| 2026-04-18 09:23 | 1.07366 | 103.58200 | 9560 ft | 259 kts | 91° |
| 2026-04-18 09:23 | 1.07342 | 103.59754 | 9109 ft | 260 kts | 90° |
| 2026-04-18 09:24 | 1.07329 | 103.61548 | 8684 ft | 257 kts | 90° |
| 2026-04-18 09:24 | 1.07312 | 103.63328 | 8243 ft | 255 kts | 90° |
| 2026-04-18 09:24 | 1.07289 | 103.65091 | 7814 ft | 254 kts | 90° |
| 2026-04-18 09:24 | 1.07261 | 103.66853 | 7388 ft | 252 kts | 90° |
| 2026-04-18 09:25 | 1.07229 | 103.68591 | 6972 ft | 250 kts | 90° |
| 2026-04-18 09:25 | 1.07192 | 103.70330 | 6714 ft | 247 kts | 90° |
| 2026-04-18 09:25 | 1.07153 | 103.72032 | 6668 ft | 249 kts | 90° |
| 2026-04-18 09:25 | 1.07111 | 103.73796 | 6532 ft | 258 kts | 90° |
| 2026-04-18 09:26 | 1.07068 | 103.75585 | 6270 ft | 258 kts | 90° |
| 2026-04-18 09:26 | 1.07026 | 103.77387 | 5905 ft | 260 kts | 90° |
| 2026-04-18 09:26 | 1.07103 | 103.79194 | 5525 ft | 261 kts | 75° |
| 2026-04-18 09:26 | 1.07889 | 103.80817 | 5166 ft | 259 kts | 53° |
| 2026-04-18 09:27 | 1.08987 | 103.82215 | 4812 ft | 253 kts | 50° |
| 2026-04-18 09:27 | 1.10087 | 103.83565 | 4451 ft | 248 kts | 50° |
| 2026-04-18 09:27 | 1.11166 | 103.84882 | 4093 ft | 243 kts | 50° |
| 2026-04-18 09:27 | 1.12229 | 103.86173 | 3734 ft | 239 kts | 50° |
| 2026-04-18 09:28 | 1.13280 | 103.87437 | 3377 ft | 235 kts | 50° |
| 2026-04-18 09:28 | 1.14341 | 103.88674 | 3020 ft | 234 kts | 45° |
| 2026-04-18 09:28 | 1.15672 | 103.89605 | 2732 ft | 235 kts | 26° |
| 2026-04-18 09:28 | 1.17167 | 103.90239 | 2644 ft | 233 kts | 23° |
| 2026-04-18 09:29 | 1.18660 | 103.90863 | 2553 ft | 233 kts | 24° |
| 2026-04-18 09:29 | 1.20152 | 103.91494 | 2522 ft | 233 kts | 24° |
| 2026-04-18 09:29 | 1.21635 | 103.92123 | 2524 ft | 228 kts | 24° |
| 2026-04-18 09:29 | 1.23063 | 103.92727 | 2438 ft | 219 kts | 24° |
| 2026-04-18 09:30 | 1.24431 | 103.93308 | 2207 ft | 206 kts | 24° |
| 2026-04-18 09:30 | 1.25679 | 103.93837 | 1942 ft | 189 kts | 24° |
| 2026-04-18 09:30 | 1.26850 | 103.94334 | 1686 ft | 173 kts | 24° |
| 2026-04-18 09:30 | 1.27883 | 103.94772 | 1509 ft | 154 kts | 24° |
| 2026-04-18 09:31 | 1.28866 | 103.95189 | 1309 ft | 151 kts | 24° |
| 2026-04-18 09:31 | 1.29819 | 103.95594 | 1107 ft | 151 kts | 25° |
| 2026-04-18 09:31 | 1.30779 | 103.95999 | 904 ft | 149 kts | 24° |
| 2026-04-18 09:31 | 1.31729 | 103.96399 | 720 ft | 147 kts | 25° |
| 2026-04-18 09:32 | 1.32675 | 103.96809 | 535 ft | 148 kts | 25° |
| 2026-04-18 09:32 | 1.33626 | 103.97210 | 325 ft | 148 kts | 24° |
| 2026-04-18 09:32 | 1.34562 | 103.97601 | 147 ft | 147 kts | 25° |
| 2026-04-18 09:32 | 1.35485 | 103.97989 | 34 ft | 134 kts | 26° |
| 2026-04-18 09:33 | 1.36230 | 103.98308 | 33 ft | 95 kts | 23° |
| 2026-04-18 09:33 | 1.36623 | 103.98488 | 33 ft | 37 kts | 39° |
| 2026-04-18 09:33 | 1.36725 | 103.98594 | 33 ft | 12 kts | 54° |
| 2026-04-18 09:33 | 1.36731 | 103.98677 | 33 ft | 14 kts | 130° |
| 2026-04-18 09:34 | 1.36639 | 103.98674 | 33 ft | 15 kts | 201° |
| 2026-04-18 09:34 | 1.36535 | 103.98631 | 33 ft | 17 kts | 203° |
| 2026-04-18 09:34 | 1.36419 | 103.98582 | 33 ft | 19 kts | 202° |
| 2026-04-18 09:34 | 1.36289 | 103.98527 | 33 ft | 21 kts | 203° |
| 2026-04-18 09:35 | 1.36148 | 103.98467 | 33 ft | 23 kts | 203° |
| 2026-04-18 09:35 | 1.35995 | 103.98402 | 33 ft | 25 kts | 203° |
| 2026-04-18 09:35 | 1.35830 | 103.98334 | 33 ft | 26 kts | 203° |
| 2026-04-18 09:35 | 1.35732 | 103.98319 | 33 ft | 12 kts | 147° |
| 2026-04-18 09:36 | 1.35714 | 103.98400 | 33 ft | 14 kts | 86° |
| 2026-04-18 09:36 | 1.35690 | 103.98484 | 33 ft | 9 kts | 113° |
| 2026-04-18 09:36 | 1.35640 | 103.98509 | 33 ft | 8 kts | 183° |
| 2026-04-18 09:36 | 1.35609 | 103.98508 | 33 ft | 3 kts | 182° |
| 2026-04-18 09:37 | 1.35600 | 103.98508 | 33 ft | 0 kts | 182° |